Daleville, Alabama
Current Conditions -  °F | °C
As of 9:58 AM on Thursday 23 Oct 2014 (Local Time) from KOZR Reporting Station
Clear Clear  
Wind Chill: 15°   Ceiling: Unl
Heat Index: 15°   Visibility: 10mi
Dew Point:   Wind: 6mph
Humidity: 66%   Direction: 50°NE
Pressure: 30.12"   Gusts: NA
Location:  31.31°N, 85.71°W
Report Text: KOZR 231458Z AUTO 05005KT 10SM CLR 15/09 A3012 RMK AO2 SLP202 T01490087 50005
Loading
Personal Weather Stations






























Interactive Weather Map
Tropical Storm Tracking
New forecast layout! Learn more

10-Day Weather Forecast

Advertisements
Track Severe Weather on mobile